Finnhawk — OJNL — position and weather

sailwx.info

Track history (hours):
 
Tides and Currents Weather Stations Pressure Air Temp Water Temp Dewpoint Dewpoint Depression Visibility Wind Speed Wind Dir Waves Ship Positions

Finnhawk

Last reported at 2015-Jun-30 07:17 UTC. Time now 2015-Jun-30 09:59 UTC.
Position N 59°34' E 022°58'.

Length 163 m; draft 6.3 m.

Type: Ship (hazmat cat C). MMSI: 230007000.

Date/timePositionNaut miles runAvg speedWind from/ knotsBaromVisibWave heightAir tempDewpointWater temp
2015-Jun-30 07:17N 59°34' E 022°58'1318.4
2015-Jun-30 06:33N 59°38' E 023°24'6518.7
2015-Jun-30 03:04N 59°54' E 025°30'1018.8
2015-Jun-30 02:33N 59°56' E 025°48'1919.0
2015-Jun-30 01:33N 60°07' E 026°19'1818.3
2015-Jun-30 00:34N 60°22' E 026°41'1110.9
2015-Jun-29 23:34N 60°29' E 026°57'0 0.1
2015-Jun-29 22:34N 60°29' E 026°57'0 0.0
2015-Jun-29 21:33N 60°29' E 026°57'0 0.0
2015-Jun-29 20:33N 60°29' E 026°57'0 0.0
2015-Jun-29 19:33N 60°29' E 026°57'0 0.0
2015-Jun-29 18:33N 60°29' E 026°57'0 0.0
2015-Jun-29 17:33N 60°29' E 026°57'0 0.0
2015-Jun-29 16:33N 60°29' E 026°57'0 0.0
2015-Jun-29 15:33N 60°29' E 026°57'0 0.0
2015-Jun-29 14:33N 60°29' E 026°57'0 0.0
2015-Jun-29 13:33N 60°29' E 026°57'0 0.0
2015-Jun-29 12:27N 60°29' E 026°57'0 0.0
2015-Jun-29 11:33N 60°29' E 026°57'0 0.0
2015-Jun-29 10:33N 60°29' E 026°57'0 0.0
2015-Jun-29 09:33N 60°29' E 026°57'0 0.0
2015-Jun-29 08:33N 60°29' E 026°57'0 0.0
2015-Jun-29 07:33N 60°29' E 026°57'0 0.0
2015-Jun-29 06:33N 60°29' E 026°57'0 0.0
2015-Jun-29 05:33N 60°29' E 026°57'0 0.0
2015-Jun-29 04:33N 60°29' E 026°57'7 6.6
2015-Jun-29 03:34N 60°23' E 026°60'1514.7
2015-Jun-29 02:33N 60°13' E 027°22'6418.2
2015-Jun-28 23:04N 60°02' E 029°28'611.8
2015-Jun-28 22:33N 59°60' E 029°40'1110.9
2015-Jun-28 21:33N 59°55' E 029°60'7 6.9
2015-Jun-28 20:33N 59°54' E 030°13'0 0.0
2015-Jun-28 19:33N 59°54' E 030°13'0 0.0
2015-Jun-28 18:32N 59°54' E 030°13'0 0.0
2015-Jun-28 17:32N 59°54' E 030°13'0 0.0
2015-Jun-28 16:32N 59°54' E 030°13'0 0.0
2015-Jun-28 15:32N 59°54' E 030°13'0 0.0
2015-Jun-28 14:32N 59°54' E 030°13'0 0.0
2015-Jun-28 13:32N 59°54' E 030°13'0 0.0
2015-Jun-28 12:32N 59°54' E 030°13'0 0.0
2015-Jun-28 11:32N 59°54' E 030°13'0 0.0
2015-Jun-28 10:32N 59°54' E 030°13'0 0.0
2015-Jun-28 09:29N 59°54' E 030°13'0 0.0
2015-Jun-28 08:32N 59°54' E 030°13'0 0.0
2015-Jun-28 07:32N 59°54' E 030°13'0 0.0
2015-Jun-28 06:32N 59°54' E 030°13'3 3.2
2015-Jun-28 05:33N 59°54' E 030°07'1211.6
2015-Jun-28 04:33N 59°59' E 029°46'7217.1
2015-Jun-28 00:21N 60°04' E 027°22'1518.0
2015-Jun-27 23:32N 59°58' E 026°55'1818.2
2015-Jun-27 22:33N 59°58' E 026°19'41 2.0
2015-Jun-27 02:04N 59°51' E 024°59'1415.8
2015-Jun-27 01:13N 59°45' E 024°34'1216.6
2015-Jun-27 00:30N 59°42' E 024°11'1616.7
2015-Jun-26 23:32N 59°37' E 023°42'1716.6
2015-Jun-26 22:31N 59°31' E 023°10'32616.8
2015-Jun-26 03:08N 55°46' E 015°49'1119.5
2015-Jun-26 02:33N 55°41' E 015°32'1919.5
2015-Jun-26 01:33N 55°31' E 015°02'1918.9
2015-Jun-26 00:32N 55°19' E 014°35'1817.7
2015-Jun-25 23:29N 55°10' E 014°07'1819.1
2015-Jun-25 22:33N 55°11' E 013°35'1919.2
2015-Jun-25 21:33N 55°14' E 013°03'1615.7
2015-Jun-25 20:33N 55°22' E 012°38'1313.4
2015-Jun-25 19:33N 55°35' E 012°42'1312.9
2015-Jun-25 18:33N 55°48' E 012°42'1615.8
2015-Jun-25 17:34N 56°03' E 012°38'1918.8
2015-Jun-25 16:33N 56°18' E 012°16'2019.5
2015-Jun-25 15:33N 56°34' E 011°57'2019.7
2015-Jun-25 14:33N 56°53' E 011°47'2019.6
2015-Jun-25 13:33N 57°11' E 011°34'1919.2
2015-Jun-25 12:33N 57°29' E 011°20'1919.4
2015-Jun-25 11:33N 57°42' E 010°54'41018.3
2015-Jun-24 13:10N 53°50' E 000°55'1219.2
2015-Jun-24 12:34N 53°44' E 000°38'1817.7
2015-Jun-24 11:34N 53°33' E 000°14'1615.6
2015-Jun-24 10:33N 53°38' W 000°10'7 7.3
2015-Jun-24 09:33N 53°44' W 000°16'0 0.3
2015-Jun-24 08:33N 53°44' W 000°16'0 0.0
2015-Jun-24 07:33N 53°44' W 000°16'0 0.0
2015-Jun-24 06:33N 53°44' W 000°16'0 0.0
2015-Jun-24 05:33N 53°44' W 000°16'0 0.0
2015-Jun-24 04:33N 53°44' W 000°16'0 0.0
2015-Jun-24 03:33N 53°44' W 000°16'0 0.0
2015-Jun-24 02:33N 53°44' W 000°16'0 0.0
2015-Jun-24 01:33N 53°44' W 000°16'0 0.0
2015-Jun-24 00:33N 53°44' W 000°16'0 0.0
2015-Jun-23 23:33N 53°44' W 000°16'0 0.0
2015-Jun-23 22:30N 53°44' W 000°16'0 0.0
2015-Jun-23 21:33N 53°44' W 000°16'0 0.0
2015-Jun-23 20:33N 53°44' W 000°16'0 0.3
2015-Jun-23 19:33N 53°45' W 000°16'0 0.4
2015-Jun-23 19:06N 53°44' W 000°16'43513.8
2015-Jun-22 11:33N 57°47' E 010°25'1717.1
2015-Jun-22 10:33N 57°44' E 010°56'1818.2
2015-Jun-22 09:33N 57°31' E 011°21'1918.5
2015-Jun-22 08:33N 57°14' E 011°35'1918.7
2015-Jun-22 07:33N 56°57' E 011°47'1818.4
2015-Jun-22 06:33N 56°39' E 011°57'1818.0
2015-Jun-22 05:33N 56°23' E 012°13'1918.7
2015-Jun-22 04:33N 56°08' E 012°31'1817.6
2015-Jun-22 03:34N 55°52' E 012°45'1515.4
2015-Jun-22 02:33N 55°37' E 012°42'1312.6
2015-Jun-22 01:33N 55°24' E 012°41'1312.5
2015-Jun-22 00:33N 55°15' E 012°57'1818.1
2015-Jun-21 23:33N 55°14' E 013°28'1918.4
2015-Jun-21 22:32N 55°13' E 014°01'1616.6
2015-Jun-21 21:33N 55°21' E 014°26'1817.8
2015-Jun-21 20:32N 55°33' E 014°51'1818.3
2015-Jun-21 19:33N 55°42' E 015°18'10416.9
2015-Jun-21 13:24N 57°01' E 017°20'1618.3
2015-Jun-21 12:32N 57°16' E 017°31'  
Track history (hours):
 
Tides and Currents Weather Stations Pressure Air Temp Water Temp Dewpoint Dewpoint Depression Visibility Wind Speed Wind Dir Waves Ship Positions

Finnhawk

Last reported at 2015-Jun-30 07:17 UTC. Time now 2015-Jun-30 09:59 UTC.
Position N 59°34' E 022°58'.

Length 163 m; draft 6.3 m.

Type: Ship (hazmat cat C). MMSI: 230007000.

Date/timePositionNaut miles runAvg speedWind from/ knotsBaromVisibWave heightAir tempDewpointWater temp
2015-Jun-30 07:17N 59°34' E 022°58'1318.4
2015-Jun-30 06:33N 59°38' E 023°24'6518.7
2015-Jun-30 03:04N 59°54' E 025°30'1018.8
2015-Jun-30 02:33N 59°56' E 025°48'1919.0
2015-Jun-30 01:33N 60°07' E 026°19'1818.3
2015-Jun-30 00:34N 60°22' E 026°41'1110.9
2015-Jun-29 23:34N 60°29' E 026°57'0 0.1
2015-Jun-29 22:34N 60°29' E 026°57'0 0.0
2015-Jun-29 21:33N 60°29' E 026°57'0 0.0
2015-Jun-29 20:33N 60°29' E 026°57'0 0.0
2015-Jun-29 19:33N 60°29' E 026°57'0 0.0
2015-Jun-29 18:33N 60°29' E 026°57'0 0.0
2015-Jun-29 17:33N 60°29' E 026°57'0 0.0
2015-Jun-29 16:33N 60°29' E 026°57'0 0.0
2015-Jun-29 15:33N 60°29' E 026°57'0 0.0
2015-Jun-29 14:33N 60°29' E 026°57'0 0.0
2015-Jun-29 13:33N 60°29' E 026°57'0 0.0
2015-Jun-29 12:27N 60°29' E 026°57'0 0.0
2015-Jun-29 11:33N 60°29' E 026°57'0 0.0
2015-Jun-29 10:33N 60°29' E 026°57'0 0.0
2015-Jun-29 09:33N 60°29' E 026°57'0 0.0
2015-Jun-29 08:33N 60°29' E 026°57'0 0.0
2015-Jun-29 07:33N 60°29' E 026°57'0 0.0
2015-Jun-29 06:33N 60°29' E 026°57'0 0.0
2015-Jun-29 05:33N 60°29' E 026°57'0 0.0
2015-Jun-29 04:33N 60°29' E 026°57'7 6.6
2015-Jun-29 03:34N 60°23' E 026°60'1514.7
2015-Jun-29 02:33N 60°13' E 027°22'6418.2
2015-Jun-28 23:04N 60°02' E 029°28'611.8
2015-Jun-28 22:33N 59°60' E 029°40'1110.9
2015-Jun-28 21:33N 59°55' E 029°60'7 6.9
2015-Jun-28 20:33N 59°54' E 030°13'0 0.0
2015-Jun-28 19:33N 59°54' E 030°13'0 0.0
2015-Jun-28 18:32N 59°54' E 030°13'0 0.0
2015-Jun-28 17:32N 59°54' E 030°13'0 0.0
2015-Jun-28 16:32N 59°54' E 030°13'0 0.0
2015-Jun-28 15:32N 59°54' E 030°13'0 0.0
2015-Jun-28 14:32N 59°54' E 030°13'0 0.0
2015-Jun-28 13:32N 59°54' E 030°13'0 0.0
2015-Jun-28 12:32N 59°54' E 030°13'0 0.0
2015-Jun-28 11:32N 59°54' E 030°13'0 0.0
2015-Jun-28 10:32N 59°54' E 030°13'0 0.0
2015-Jun-28 09:29N 59°54' E 030°13'0 0.0
2015-Jun-28 08:32N 59°54' E 030°13'0 0.0
2015-Jun-28 07:32N 59°54' E 030°13'0 0.0
2015-Jun-28 06:32N 59°54' E 030°13'3 3.2
2015-Jun-28 05:33N 59°54' E 030°07'1211.6
2015-Jun-28 04:33N 59°59' E 029°46'7217.1
2015-Jun-28 00:21N 60°04' E 027°22'1518.0
2015-Jun-27 23:32N 59°58' E 026°55'1818.2
2015-Jun-27 22:33N 59°58' E 026°19'41 2.0
2015-Jun-27 02:04N 59°51' E 024°59'1415.8
2015-Jun-27 01:13N 59°45' E 024°34'1216.6
2015-Jun-27 00:30N 59°42' E 024°11'1616.7
2015-Jun-26 23:32N 59°37' E 023°42'1716.6
2015-Jun-26 22:31N 59°31' E 023°10'32616.8
2015-Jun-26 03:08N 55°46' E 015°49'1119.5
2015-Jun-26 02:33N 55°41' E 015°32'1919.5
2015-Jun-26 01:33N 55°31' E 015°02'1918.9
2015-Jun-26 00:32N 55°19' E 014°35'1817.7
2015-Jun-25 23:29N 55°10' E 014°07'1819.1
2015-Jun-25 22:33N 55°11' E 013°35'1919.2
2015-Jun-25 21:33N 55°14' E 013°03'1615.7
2015-Jun-25 20:33N 55°22' E 012°38'1313.4
2015-Jun-25 19:33N 55°35' E 012°42'1312.9
2015-Jun-25 18:33N 55°48' E 012°42'1615.8
2015-Jun-25 17:34N 56°03' E 012°38'1918.8
2015-Jun-25 16:33N 56°18' E 012°16'2019.5
2015-Jun-25 15:33N 56°34' E 011°57'2019.7
2015-Jun-25 14:33N 56°53' E 011°47'2019.6
2015-Jun-25 13:33N 57°11' E 011°34'1919.2
2015-Jun-25 12:33N 57°29' E 011°20'1919.4
2015-Jun-25 11:33N 57°42' E 010°54'41018.3
2015-Jun-24 13:10N 53°50' E 000°55'1219.2
2015-Jun-24 12:34N 53°44' E 000°38'1817.7
2015-Jun-24 11:34N 53°33' E 000°14'1615.6
2015-Jun-24 10:33N 53°38' W 000°10'7 7.3
2015-Jun-24 09:33N 53°44' W 000°16'0 0.3
2015-Jun-24 08:33N 53°44' W 000°16'0 0.0
2015-Jun-24 07:33N 53°44' W 000°16'0 0.0
2015-Jun-24 06:33N 53°44' W 000°16'0 0.0
2015-Jun-24 05:33N 53°44' W 000°16'0 0.0
2015-Jun-24 04:33N 53°44' W 000°16'0 0.0
2015-Jun-24 03:33N 53°44' W 000°16'0 0.0
2015-Jun-24 02:33N 53°44' W 000°16'0 0.0
2015-Jun-24 01:33N 53°44' W 000°16'0 0.0
2015-Jun-24 00:33N 53°44' W 000°16'0 0.0
2015-Jun-23 23:33N 53°44' W 000°16'0 0.0
2015-Jun-23 22:30N 53°44' W 000°16'0 0.0
2015-Jun-23 21:33N 53°44' W 000°16'0 0.0
2015-Jun-23 20:33N 53°44' W 000°16'0 0.3
2015-Jun-23 19:33N 53°45' W 000°16'0 0.4
2015-Jun-23 19:06N 53°44' W 000°16'43513.8
2015-Jun-22 11:33N 57°47' E 010°25'1717.1
2015-Jun-22 10:33N 57°44' E 010°56'1818.2
2015-Jun-22 09:33N 57°31' E 011°21'1918.5
2015-Jun-22 08:33N 57°14' E 011°35'1918.7
2015-Jun-22 07:33N 56°57' E 011°47'1818.4
2015-Jun-22 06:33N 56°39' E 011°57'1818.0
2015-Jun-22 05:33N 56°23' E 012°13'1918.7
2015-Jun-22 04:33N 56°08' E 012°31'1817.6
2015-Jun-22 03:34N 55°52' E 012°45'1515.4
2015-Jun-22 02:33N 55°37' E 012°42'1312.6
2015-Jun-22 01:33N 55°24' E 012°41'1312.5
2015-Jun-22 00:33N 55°15' E 012°57'1818.1
2015-Jun-21 23:33N 55°14' E 013°28'1918.4
2015-Jun-21 22:32N 55°13' E 014°01'1616.6
2015-Jun-21 21:33N 55°21' E 014°26'1817.8
2015-Jun-21 20:32N 55°33' E 014°51'1818.3
2015-Jun-21 19:33N 55°42' E 015°18'10416.9
2015-Jun-21 13:24N 57°01' E 017°20'1618.3
2015-Jun-21 12:32N 57°16' E 017°31'  

Dump ship's entire track history